Time;durP1;ratioP1;P1;durP2;ratioP2;P2;SDS_P1;SDS_P2;PMS_P1;PMS_P2;Temp;Humidity;BMP_temperature;BMP_pressure;BME280_temperature;BME280_humidity;BME280_pressure;Samples;Min_cycle;Max_cycle;Signal;HPM_P1;HPM_P2
2021/07/12 00:02:01;;;;;;;5.22;3.95;;;23.60;60.00;;;;;;4960291;28;20543;-82
2021/07/12 00:04:27;;;;;;;4.47;3.78;;;23.60;60.10;;;;;;4995678;28;20475;-83
2021/07/12 00:06:53;;;;;;;5.15;4.43;;;23.60;60.20;;;;;;4979286;28;20041;-82
2021/07/12 00:09:19;;;;;;;5.00;4.20;;;23.50;60.20;;;;;;4979251;28;20030;-81
2021/07/12 00:11:44;;;;;;;5.32;4.18;;;23.50;60.20;;;;;;4963065;28;20034;-82
2021/07/12 00:14:10;;;;;;;4.68;3.90;;;23.50;60.20;;;;;;4963102;28;20065;-82
2021/07/12 00:16:36;;;;;;;5.57;4.32;;;23.40;60.20;;;;;;4978934;28;20022;-82
2021/07/12 00:19:03;;;;;;;5.43;4.50;;;23.40;60.30;;;;;;4979030;28;20030;-83
2021/07/12 00:21:29;;;;;;;5.50;4.15;;;23.40;60.30;;;;;;4978983;28;20026;-82
2021/07/12 00:23:54;;;;;;;6.15;4.68;;;23.40;60.30;;;;;;4995205;28;20039;-83
2021/07/12 00:26:20;;;;;;;5.68;4.65;;;23.30;60.30;;;;;;4962645;28;20026;-82
2021/07/12 00:28:46;;;;;;;5.43;4.63;;;23.40;60.30;;;;;;4994442;28;20085;-82
2021/07/12 00:31:12;;;;;;;5.53;4.53;;;23.30;60.30;;;;;;4962889;28;20039;-83
2021/07/12 00:33:39;;;;;;;5.25;4.40;;;23.30;60.40;;;;;;4962807;28;20098;-82
2021/07/12 00:36:07;;;;;;;5.30;4.60;;;23.30;60.40;;;;;;4979620;28;20379;-83
2021/07/12 00:38:33;;;;;;;5.65;4.72;;;23.20;60.40;;;;;;4978891;28;20530;-83
2021/07/12 00:40:59;;;;;;;5.53;4.47;;;23.20;60.50;;;;;;4962655;28;20173;-83
2021/07/12 00:43:25;;;;;;;5.72;4.63;;;23.20;60.50;;;;;;4962691;28;20121;-83
2021/07/12 00:45:51;;;;;;;6.05;4.97;;;23.20;60.60;;;;;;4994866;28;20027;-83
2021/07/12 00:48:18;;;;;;;5.20;4.45;;;23.20;60.60;;;;;;4978982;28;20030;-82
2021/07/12 00:50:48;;;;;;;5.30;4.65;;;23.10;60.60;;;;;;4963391;28;20101;-83
2021/07/12 00:53:15;;;;;;;5.47;4.72;;;23.10;60.60;;;;;;4978506;28;20050;-83
2021/07/12 00:55:47;;;;;;;6.13;4.45;;;23.10;60.70;;;;;;4978663;28;20058;-83
2021/07/12 00:58:18;;;;;;;5.78;4.60;;;23.10;60.80;;;;;;4978519;28;20030;-82
2021/07/12 01:00:47;;;;;;;5.50;4.43;;;23.10;60.80;;;;;;4978628;28;20026;-83
2021/07/12 01:03:14;;;;;;;5.70;4.78;;;23.00;60.80;;;;;;4978476;28;20520;-83
2021/07/12 01:05:41;;;;;;;6.00;4.85;;;23.00;60.80;;;;;;4962716;28;20061;-83
2021/07/12 01:08:08;;;;;;;5.90;4.85;;;23.00;60.90;;;;;;4962034;28;20092;-83
2021/07/12 01:10:41;;;;;;;5.47;4.32;;;23.00;60.90;;;;;;4995275;28;20042;-83
2021/07/12 01:13:20;;;;;;;5.72;5.03;;;22.90;60.90;;;;;;4994322;28;20117;-82
2021/07/12 01:16:15;;;;;;;5.75;5.00;;;22.90;60.90;;;;;;4977998;28;20062;-82
2021/07/12 01:19:08;;;;;;;6.25;5.03;;;22.90;61.10;;;;;;4994908;28;20034;-82
2021/07/12 01:22:11;;;;;;;5.25;4.55;;;22.80;61.00;;;;;;4978101;28;20109;-83
2021/07/12 01:25:20;;;;;;;6.05;4.32;;;22.80;61.10;;;;;;4977882;28;20034;-83
2021/07/12 01:28:09;;;;;;;5.38;4.38;;;22.80;61.20;;;;;;4978870;28;20502;-83
2021/07/12 01:30:36;;;;;;;5.43;4.70;;;22.70;61.00;;;;;;4962109;28;20026;-82
2021/07/12 01:33:11;;;;;;;6.13;5.07;;;22.70;61.10;;;;;;4978175;28;20129;-82
2021/07/12 01:36:00;;;;;;;5.82;5.10;;;22.70;61.20;;;;;;4978112;28;20030;-82
2021/07/12 01:38:40;;;;;;;6.10;4.80;;;22.70;61.20;;;;;;4981115;28;20026;-82
2021/07/12 01:41:18;;;;;;;6.28;5.03;;;22.70;61.20;;;;;;4978799;28;20457;-82
2021/07/12 01:44:07;;;;;;;5.68;4.63;;;22.60;61.20;;;;;;4977694;28;20089;-82
2021/07/12 01:46:51;;;;;;;5.38;4.53;;;22.60;61.30;;;;;;4973239;28;20467;-82
2021/07/12 01:49:18;;;;;;;5.10;4.03;;;22.60;61.30;;;;;;4977544;28;20034;-83
2021/07/12 01:52:06;;;;;;;5.65;4.68;;;22.50;61.10;;;;;;4977579;28;20034;-82
2021/07/12 01:55:00;;;;;;;5.85;4.88;;;22.50;61.20;;;;;;4993863;28;20042;-83
2021/07/12 01:57:32;;;;;;;5.80;4.43;;;22.50;61.30;;;;;;4977567;28;20050;-81
2021/07/12 02:00:10;;;;;;;5.50;4.70;;;22.50;61.20;;;;;;4961676;28;20036;-82
2021/07/12 02:02:56;;;;;;;5.47;4.55;;;22.50;61.40;;;;;;4963653;28;20064;-82
2021/07/12 02:05:32;;;;;;;5.70;4.88;;;22.40;61.30;;;;;;4978423;28;20074;-82
2021/07/12 02:08:01;;;;;;;5.78;4.55;;;22.40;61.30;;;;;;4961663;28;20081;-82
2021/07/12 02:10:30;;;;;;;5.95;4.95;;;22.40;61.40;;;;;;4994291;28;20027;-82
2021/07/12 02:13:00;;;;;;;5.30;4.30;;;22.40;61.40;;;;;;4977176;28;20045;-82
2021/07/12 02:15:34;;;;;;;6.20;4.78;;;22.40;61.40;;;;;;4993995;28;20038;-82
2021/07/12 02:18:05;;;;;;;6.05;5.20;;;22.40;61.50;;;;;;4995008;28;20121;-82
2021/07/12 02:20:39;;;;;;;7.85;5.35;;;22.30;61.40;;;;;;4993288;28;20031;-83
2021/07/12 02:23:08;;;;;;;5.30;4.45;;;22.30;61.50;;;;;;4961002;28;20034;-83
2021/07/12 02:25:36;;;;;;;5.70;4.78;;;22.30;61.50;;;;;;4977544;28;20069;-83
2021/07/12 02:28:09;;;;;;;6.05;4.78;;;22.30;61.50;;;;;;4977894;28;20447;-82
2021/07/12 02:30:37;;;;;;;6.07;5.43;;;22.30;61.60;;;;;;4977044;28;20463;-81
2021/07/12 02:33:05;;;;;;;5.32;4.45;;;22.30;61.60;;;;;;4960858;28;20432;-82
2021/07/12 02:35:32;;;;;;;5.40;4.60;;;22.30;61.60;;;;;;4945596;28;20027;-82
2021/07/12 02:37:58;;;;;;;6.05;4.97;;;22.20;61.60;;;;;;4976949;28;20025;-83
2021/07/12 02:40:24;;;;;;;5.55;4.72;;;22.20;61.60;;;;;;4976777;28;20042;-82
2021/07/12 02:42:56;;;;;;;6.10;4.93;;;22.10;61.50;;;;;;4961016;28;20057;-82
2021/07/12 02:45:25;;;;;;;5.65;4.22;;;22.20;61.70;;;;;;4976462;28;20475;-82
2021/07/12 02:47:54;;;;;;;5.70;4.93;;;22.10;61.60;;;;;;4960924;28;20038;-82
2021/07/12 02:50:21;;;;;;;5.80;4.97;;;22.10;61.60;;;;;;4976873;28;20035;-82
2021/07/12 02:52:51;;;;;;;6.85;5.10;;;22.10;61.70;;;;;;4979378;28;20049;-82
2021/07/12 02:55:18;;;;;;;6.03;4.90;;;22.10;61.70;;;;;;4980552;28;20034;-82
2021/07/12 02:57:44;;;;;;;6.07;5.03;;;22.00;61.70;;;;;;4980574;28;20026;-82
2021/07/12 03:00:12;;;;;;;5.63;4.75;;;22.00;61.70;;;;;;4964325;28;20030;-82
2021/07/12 03:02:40;;;;;;;6.28;5.03;;;22.00;61.70;;;;;;4980309;28;20080;-82
2021/07/12 03:05:11;;;;;;;5.50;4.65;;;22.00;61.80;;;;;;4980420;28;20117;-82
2021/07/12 03:07:49;;;;;;;6.72;4.63;;;22.00;61.80;;;;;;4996824;28;20373;-82
2021/07/12 03:10:22;;;;;;;6.10;4.45;;;21.90;61.80;;;;;;4980482;28;20022;-82
2021/07/12 03:12:59;;;;;;;5.38;4.25;;;21.90;61.80;;;;;;4964077;28;20034;-82
2021/07/12 03:15:46;;;;;;;5.47;4.60;;;21.90;61.90;;;;;;4980418;28;20080;-82
2021/07/12 03:18:38;;;;;;;5.82;4.85;;;21.90;61.90;;;;;;4964160;28;20026;-82
2021/07/12 03:21:05;;;;;;;5.72;4.60;;;21.80;61.90;;;;;;4980020;28;20037;-82
2021/07/12 03:23:42;;;;;;;5.95;4.80;;;21.80;61.80;;;;;;4980806;28;20121;-81
2021/07/12 03:26:10;;;;;;;5.80;4.43;;;21.80;62.00;;;;;;4980188;28;20044;-82
2021/07/12 03:28:39;;;;;;;5.70;4.80;;;21.80;61.90;;;;;;4979926;28;20027;-81
2021/07/12 03:31:08;;;;;;;6.20;4.78;;;21.70;61.90;;;;;;4948234;28;20085;-82
2021/07/12 03:33:37;;;;;;;5.53;4.57;;;21.70;62.00;;;;;;4997580;28;20085;-83
2021/07/12 03:36:04;;;;;;;5.65;4.53;;;21.70;62.00;;;;;;4963877;28;20034;-82
2021/07/12 03:38:31;;;;;;;5.47;4.55;;;21.70;62.00;;;;;;4980269;28;20126;-82
2021/07/12 03:40:59;;;;;;;5.82;4.43;;;21.70;62.00;;;;;;4979971;28;20038;-82
2021/07/12 03:43:25;;;;;;;5.35;4.45;;;21.60;62.00;;;;;;4980050;28;20117;-83
2021/07/12 03:45:55;;;;;;;5.85;4.75;;;21.60;62.10;;;;;;4963940;28;20154;-82
2021/07/12 03:48:42;;;;;;;5.57;4.30;;;21.60;62.10;;;;;;4963606;28;20125;-82
2021/07/12 03:51:15;;;;;;;5.45;4.55;;;21.50;62.20;;;;;;4979623;28;20344;-82
2021/07/12 03:53:44;;;;;;;6.28;4.50;;;21.60;62.10;;;;;;4979671;28;20092;-82
2021/07/12 03:56:11;;;;;;;5.47;4.35;;;21.50;62.10;;;;;;4979698;28;20117;-82
2021/07/12 03:58:37;;;;;;;5.70;4.82;;;21.50;62.20;;;;;;4979433;28;20053;-82
2021/07/12 04:01:03;;;;;;;6.38;4.97;;;21.50;62.30;;;;;;4963178;28;20030;-82
2021/07/12 04:03:29;;;;;;;5.47;4.60;;;21.50;62.30;;;;;;4962126;28;20054;-82
2021/07/12 04:05:55;;;;;;;6.38;4.97;;;21.40;62.20;;;;;;4979299;28;20364;-82
2021/07/12 04:08:21;;;;;;;5.38;4.57;;;21.40;62.30;;;;;;4963672;28;20422;-82
2021/07/12 04:10:48;;;;;;;5.38;4.45;;;21.50;62.40;;;;;;4963138;28;20177;-82
2021/07/12 04:13:14;;;;;;;6.30;4.68;;;21.40;62.30;;;;;;4963010;28;20387;-82
2021/07/12 04:15:40;;;;;;;5.40;4.70;;;21.40;62.40;;;;;;4979066;28;20026;-82
2021/07/12 04:18:07;;;;;;;5.55;4.35;;;21.40;62.40;;;;;;4979121;28;20058;-81
2021/07/12 04:20:34;;;;;;;4.97;4.43;;;21.40;62.50;;;;;;4978908;28;20018;-82
2021/07/12 04:23:00;;;;;;;6.25;4.88;;;21.30;62.40;;;;;;4995633;28;20103;-82
2021/07/12 04:25:27;;;;;;;5.53;4.72;;;21.40;62.50;;;;;;4963065;28;20477;-82
2021/07/12 04:27:52;;;;;;;5.82;4.47;;;21.30;62.50;;;;;;4979120;28;20038;-82
2021/07/12 04:30:19;;;;;;;6.68;4.78;;;21.30;62.50;;;;;;4979689;28;20026;-86
2021/07/12 04:32:45;;;;;;;5.07;4.30;;;21.30;62.60;;;;;;4964399;28;20046;-86
2021/07/12 04:35:14;;;;;;;5.05;4.00;;;21.30;62.60;;;;;;4964335;28;20109;-85
2021/07/12 04:37:41;;;;;;;6.00;4.80;;;21.30;62.60;;;;;;4995354;28;20031;-80
2021/07/12 04:40:08;;;;;;;5.10;4.05;;;21.20;62.60;;;;;;4978434;28;20034;-79
2021/07/12 04:42:33;;;;;;;5.53;4.43;;;21.30;62.80;;;;;;4994923;28;20035;-79
2021/07/12 04:45:01;;;;;;;5.20;4.63;;;21.20;62.70;;;;;;4978352;28;20146;-80
2021/07/12 04:47:27;;;;;;;5.53;4.43;;;21.30;62.80;;;;;;4962503;28;20026;-80
2021/07/12 04:49:54;;;;;;;5.55;4.47;;;21.20;62.80;;;;;;4994923;28;20100;-81
2021/07/12 04:52:20;;;;;;;5.68;4.63;;;21.20;62.90;;;;;;4979144;28;20035;-83
2021/07/12 04:54:46;;;;;;;5.70;4.72;;;21.20;62.90;;;;;;4963431;28;20069;-84
2021/07/12 04:57:12;;;;;;;5.22;4.30;;;21.20;62.90;;;;;;4961965;28;20031;-81
2021/07/12 04:59:39;;;;;;;5.43;4.60;;;21.20;62.90;;;;;;4994628;28;20033;-80
2021/07/12 05:02:10;;;;;;;5.15;4.43;;;21.20;63.00;;;;;;4962674;28;20046;-79
2021/07/12 05:04:36;;;;;;;5.63;4.55;;;21.20;63.10;;;;;;4978011;28;20085;-82
2021/07/12 05:07:03;;;;;;;5.65;4.55;;;21.20;63.60;;;;;;4961914;28;20186;-79
2021/07/12 05:09:30;;;;;;;5.60;4.78;;;21.20;63.10;;;;;;4978123;28;20035;-79
2021/07/12 05:11:56;;;;;;;5.95;4.82;;;21.10;63.00;;;;;;4977863;28;20113;-79
2021/07/12 05:14:24;;;;;;;7.57;5.22;;;21.10;63.10;;;;;;4995005;28;20045;-79
2021/07/12 05:16:50;;;;;;;6.25;5.25;;;21.20;63.10;;;;;;4961701;28;20154;-78
2021/07/12 05:19:17;;;;;;;5.55;4.95;;;21.10;63.10;;;;;;4977859;28;20029;-77
2021/07/12 05:21:42;;;;;;;7.07;5.78;;;21.10;63.20;;;;;;4977617;28;20037;-80
2021/07/12 05:24:08;;;;;;;6.40;5.22;;;21.20;63.20;;;;;;4977279;28;20483;-79
2021/07/12 05:26:35;;;;;;;5.82;4.75;;;21.20;63.20;;;;;;4977651;28;20035;-80
2021/07/12 05:29:00;;;;;;;6.53;5.20;;;21.20;63.20;;;;;;4977967;28;20034;-79
2021/07/12 05:31:26;;;;;;;6.22;5.07;;;21.20;63.20;;;;;;4977665;28;20145;-80
2021/07/12 05:33:53;;;;;;;6.10;4.80;;;21.20;63.20;;;;;;4977912;28;20030;-80
2021/07/12 05:36:19;;;;;;;6.47;4.97;;;21.20;63.20;;;;;;4977438;28;20035;-80
2021/07/12 05:38:44;;;;;;;5.68;4.65;;;21.20;63.30;;;;;;4977422;28;20030;-80
2021/07/12 05:41:10;;;;;;;5.65;4.65;;;21.20;63.30;;;;;;4993324;28;20045;-80
2021/07/12 05:43:36;;;;;;;5.70;4.45;;;21.20;63.30;;;;;;4961277;28;20395;-80
2021/07/12 05:46:04;;;;;;;5.97;4.90;;;21.20;63.30;;;;;;4994151;28;20459;-80
2021/07/12 05:48:30;;;;;;;6.35;4.75;;;21.20;63.30;;;;;;4961424;28;20037;-80
2021/07/12 05:50:56;;;;;;;6.63;5.32;;;21.20;63.40;;;;;;4977122;28;20113;-79
2021/07/12 05:53:21;;;;;;;5.90;4.78;;;21.20;63.40;;;;;;4961280;28;20494;-79
2021/07/12 05:55:47;;;;;;;6.30;5.03;;;21.20;63.40;;;;;;4977476;28;20391;-79
2021/07/12 05:58:13;;;;;;;6.00;4.85;;;21.30;63.40;;;;;;4961162;28;20044;-79
2021/07/12 06:00:39;;;;;;;5.95;5.05;;;21.30;63.50;;;;;;4993378;28;20037;-80
2021/07/12 06:03:05;;;;;;;6.47;5.30;;;21.30;63.50;;;;;;4961273;28;20117;-80
2021/07/12 06:05:30;;;;;;;5.88;5.15;;;21.30;63.50;;;;;;4977012;28;20403;-79
2021/07/12 06:08:04;;;;;;;5.93;5.22;;;21.30;63.50;;;;;;4993429;28;20041;-79
2021/07/12 06:10:30;;;;;;;6.17;5.37;;;21.30;63.60;;;;;;4977229;28;20463;-79
2021/07/12 06:12:56;;;;;;;7.03;5.28;;;21.30;63.50;;;;;;4961455;28;20066;-79
2021/07/12 06:15:22;;;;;;;7.03;5.68;;;21.40;63.70;;;;;;4994607;28;20121;-80
2021/07/12 06:17:47;;;;;;;6.57;5.85;;;21.40;63.70;;;;;;4978360;28;20030;-79
2021/07/12 06:20:15;;;;;;;6.78;5.63;;;21.30;63.60;;;;;;4995239;28;20061;-80
2021/07/12 06:22:42;;;;;;;6.47;5.80;;;21.40;63.70;;;;;;4994775;28;20030;-80
2021/07/12 06:25:09;;;;;;;7.10;5.78;;;21.40;63.80;;;;;;4977065;28;20027;-80
2021/07/12 06:27:34;;;;;;;7.30;5.88;;;21.40;63.80;;;;;;4976192;28;20398;-80
2021/07/12 06:30:00;;;;;;;7.55;5.80;;;21.40;63.80;;;;;;4977011;28;20053;-80
2021/07/12 06:32:26;;;;;;;7.18;5.97;;;21.40;63.80;;;;;;4992860;28;20108;-81
2021/07/12 06:34:52;;;;;;;6.93;6.07;;;21.50;63.90;;;;;;4976768;28;20415;-80
2021/07/12 06:37:17;;;;;;;7.25;6.05;;;21.50;63.80;;;;;;4976841;28;20037;-79
2021/07/12 06:39:43;;;;;;;6.78;5.82;;;21.50;63.90;;;;;;4993496;28;20531;-80
2021/07/12 06:42:09;;;;;;;7.35;6.32;;;21.50;63.80;;;;;;4993006;28;20038;-79
2021/07/12 06:44:35;;;;;;;6.82;6.00;;;21.60;63.90;;;;;;4976495;28;20027;-80
2021/07/12 06:47:01;;;;;;;6.93;6.18;;;21.50;63.80;;;;;;4976672;28;20085;-79
2021/07/12 06:49:26;;;;;;;6.45;5.75;;;21.60;63.90;;;;;;4993052;28;20030;-79
2021/07/12 06:51:52;;;;;;;7.88;6.38;;;21.60;63.90;;;;;;4993983;28;20042;-79
2021/07/12 06:54:18;;;;;;;6.93;5.90;;;21.70;63.90;;;;;;4992792;28;20030;-80
2021/07/12 06:56:44;;;;;;;7.18;6.15;;;21.70;63.90;;;;;;4976844;28;20034;-80
2021/07/12 06:59:10;;;;;;;7.65;5.97;;;21.70;63.80;;;;;;4976624;28;20054;-80
2021/07/12 07:01:40;;;;;;;7.10;5.95;;;21.70;63.80;;;;;;4961664;28;20089;-79
2021/07/12 07:04:06;;;;;;;7.32;6.40;;;21.70;64.40;;;;;;4992554;28;20054;-80
2021/07/12 07:06:32;;;;;;;7.45;6.30;;;21.80;63.90;;;;;;4976668;28;20046;-79
2021/07/12 07:08:57;;;;;;;7.68;6.70;;;21.80;63.80;;;;;;4976680;28;20396;-80
2021/07/12 07:11:23;;;;;;;7.93;6.50;;;21.80;63.80;;;;;;4992426;28;20038;-79
2021/07/12 07:13:49;;;;;;;7.38;6.40;;;21.90;63.90;;;;;;4976590;28;20037;-79
2021/07/12 07:16:15;;;;;;;6.68;5.97;;;21.90;63.90;;;;;;4993722;28;20386;-79
2021/07/12 07:18:41;;;;;;;7.50;5.95;;;21.90;63.80;;;;;;4992494;28;20031;-79
2021/07/12 07:21:09;;;;;;;6.63;5.93;;;21.90;63.80;;;;;;4976327;28;20034;-80
2021/07/12 07:23:35;;;;;;;7.32;6.20;;;22.00;63.80;;;;;;4977000;28;20068;-80
2021/07/12 07:26:01;;;;;;;6.90;6.18;;;22.00;63.80;;;;;;4976970;28;20073;-80
2021/07/12 07:28:27;;;;;;;7.05;6.28;;;22.00;63.70;;;;;;4992932;28;20035;-82
2021/07/12 07:30:53;;;;;;;6.90;5.97;;;22.00;63.70;;;;;;4994434;28;20030;-80
2021/07/12 07:33:19;;;;;;;7.20;5.97;;;22.10;63.70;;;;;;4976606;28;20467;-81
2021/07/12 07:35:45;;;;;;;6.97;5.95;;;22.10;63.70;;;;;;4976616;28;20041;-78
2021/07/12 07:38:11;;;;;;;6.30;5.57;;;22.20;63.70;;;;;;4977749;28;20030;-80
2021/07/12 07:40:36;;;;;;;7.50;6.10;;;22.20;63.70;;;;;;4996088;28;20062;-81
2021/07/12 07:43:03;;;;;;;6.88;5.88;;;22.20;63.60;;;;;;4997537;28;20034;-82
2021/07/12 07:45:32;;;;;;;7.07;6.38;;;22.30;63.60;;;;;;4979247;28;20019;-81
2021/07/12 07:47:58;;;;;;;6.90;5.90;;;22.30;63.60;;;;;;4995880;28;20054;-81
2021/07/12 07:50:23;;;;;;;8.80;7.10;;;22.40;63.50;;;;;;4997030;28;20471;-81
2021/07/12 07:52:50;;;;;;;6.57;5.88;;;22.40;63.40;;;;;;4979440;28;20154;-82
2021/07/12 07:55:16;;;;;;;6.70;6.00;;;22.50;63.40;;;;;;4947524;28;20031;-82
2021/07/12 07:57:42;;;;;;;7.30;6.22;;;22.50;63.30;;;;;;4979453;28;20027;-81
2021/07/12 08:00:17;;;;;;;7.03;5.95;;;22.60;63.20;;;;;;4979387;28;20176;-82
2021/07/12 08:02:43;;;;;;;6.60;5.97;;;22.70;63.30;;;;;;4963596;28;20030;-82
2021/07/12 08:05:09;;;;;;;6.47;5.70;;;22.70;63.10;;;;;;4995708;28;20121;-81
2021/07/12 08:07:36;;;;;;;6.53;5.82;;;22.80;63.10;;;;;;4997144;28;20038;-82
2021/07/12 08:10:06;;;;;;;6.57;5.78;;;22.90;63.10;;;;;;4995988;28;20451;-82
2021/07/12 08:12:32;;;;;;;7.13;5.97;;;22.90;62.90;;;;;;4979388;28;20061;-81
2021/07/12 08:14:57;;;;;;;6.22;5.60;;;23.00;62.80;;;;;;4979621;28;20030;-82
2021/07/12 08:17:23;;;;;;;6.68;5.93;;;23.00;62.70;;;;;;4996177;28;20030;-81
2021/07/12 08:19:49;;;;;;;6.35;5.53;;;23.10;62.70;;;;;;4963528;28;20065;-81
2021/07/12 08:22:14;;;;;;;6.25;5.63;;;23.20;62.70;;;;;;4979706;28;20382;-82
2021/07/12 08:24:40;;;;;;;6.95;5.43;;;23.30;62.60;;;;;;4962936;28;20057;-81
2021/07/12 08:27:06;;;;;;;6.45;5.63;;;23.30;62.50;;;;;;4962840;28;20403;-81
2021/07/12 08:29:32;;;;;;;6.28;5.22;;;23.40;62.40;;;;;;4962803;28;20022;-81
2021/07/12 08:31:58;;;;;;;5.75;4.65;;;23.50;62.40;;;;;;4995341;28;20038;-81
2021/07/12 08:34:24;;;;;;;5.75;4.70;;;23.60;62.30;;;;;;4996633;28;20465;-81
2021/07/12 08:36:50;;;;;;;6.07;4.53;;;23.60;62.20;;;;;;4978540;28;20034;-81
2021/07/12 08:39:18;;;;;;;5.72;4.65;;;23.80;62.20;;;;;;4962540;28;20030;-81
2021/07/12 08:41:44;;;;;;;5.82;4.63;;;23.80;62.10;;;;;;4979106;28;20039;-81
2021/07/12 08:44:10;;;;;;;5.90;4.78;;;23.90;62.00;;;;;;4978826;28;20030;-81
2021/07/12 08:46:35;;;;;;;5.25;4.38;;;24.00;62.00;;;;;;4962838;28;20071;-81
2021/07/12 08:49:01;;;;;;;5.45;4.60;;;24.00;61.90;;;;;;4995390;28;20034;-81
2021/07/12 08:51:27;;;;;;;5.78;4.80;;;24.20;61.90;;;;;;4978236;28;20027;-81
2021/07/12 08:53:53;;;;;;;5.70;4.50;;;24.20;61.80;;;;;;4978463;28;20085;-81
2021/07/12 08:56:19;;;;;;;5.22;4.43;;;24.30;61.80;;;;;;4962306;28;20498;-81
2021/07/12 08:58:45;;;;;;;5.07;4.15;;;24.40;61.70;;;;;;4978192;28;20049;-80
2021/07/12 09:01:11;;;;;;;5.00;3.88;;;24.50;61.60;;;;;;4977933;28;20022;-83
2021/07/12 09:03:39;;;;;;;5.50;4.28;;;24.60;61.50;;;;;;4961885;28;20550;-82
2021/07/12 09:06:08;;;;;;;5.35;4.10;;;24.60;61.40;;;;;;4963438;28;20042;-81
2021/07/12 09:08:49;;;;;;;4.72;3.67;;;24.80;61.40;;;;;;4978456;28;20479;-78
2021/07/12 09:11:34;;;;;;;4.82;3.47;;;24.80;61.20;;;;;;4962100;28;20034;-79
2021/07/12 09:14:09;;;;;;;5.03;3.92;;;24.90;61.20;;;;;;4994405;28;20030;-79
2021/07/12 09:16:44;;;;;;;5.10;3.83;;;25.00;61.10;;;;;;4977900;28;20030;-80
2021/07/12 09:19:18;;;;;;;4.38;3.65;;;25.10;61.10;;;;;;4977887;28;20034;-79
2021/07/12 09:21:51;;;;;;;4.32;3.38;;;25.20;60.90;;;;;;4994153;28;20042;-79
2021/07/12 09:24:36;;;;;;;5.03;3.60;;;25.30;60.90;;;;;;4995266;28;20030;-79
2021/07/12 09:27:04;;;;;;;4.57;3.45;;;25.40;61.00;;;;;;4994704;28;20037;-79
2021/07/12 09:29:36;;;;;;;4.00;3.20;;;25.40;60.70;;;;;;4977730;28;20031;-80
2021/07/12 09:32:08;;;;;;;4.32;3.45;;;25.50;60.70;;;;;;4993543;28;20037;-80
2021/07/12 09:34:35;;;;;;;3.83;3.13;;;25.60;60.60;;;;;;4962108;28;20363;-80
2021/07/12 09:37:01;;;;;;;4.53;3.50;;;25.70;60.50;;;;;;4961827;28;20033;-80
2021/07/12 09:39:42;;;;;;;4.13;3.10;;;25.80;60.50;;;;;;4977527;28;20039;-80
2021/07/12 09:42:13;;;;;;;4.47;3.30;;;25.90;60.60;;;;;;4994842;28;20491;-79
2021/07/12 09:44:44;;;;;;;4.35;3.42;;;26.00;60.40;;;;;;4977980;28;20033;-78
2021/07/12 09:47:17;;;;;;;3.95;3.08;;;26.00;60.20;;;;;;4993810;28;20030;-78
2021/07/12 09:49:43;;;;;;;4.80;3.40;;;26.10;60.20;;;;;;4993746;28;20467;-78
2021/07/12 09:52:12;;;;;;;3.88;2.70;;;26.20;60.20;;;;;;4993291;28;20443;-78
2021/07/12 09:54:40;;;;;;;4.47;3.03;;;26.30;60.20;;;;;;4976882;28;20045;-78
2021/07/12 09:57:18;;;;;;;4.30;3.10;;;26.40;60.10;;;;;;4961277;28;20365;-79
2021/07/12 10:00:09;;;;;;;3.53;2.60;;;26.50;60.10;;;;;;4977435;28;20117;-79
2021/07/12 10:02:42;;;;;;;3.83;2.70;;;26.50;60.00;;;;;;4977070;28;20459;-78
2021/07/12 10:05:11;;;;;;;3.40;2.80;;;26.60;59.80;;;;;;4961074;28;20054;-78
2021/07/12 10:07:37;;;;;;;3.30;2.50;;;26.70;59.70;;;;;;4994067;28;20030;-78
2021/07/12 10:10:08;;;;;;;4.10;2.92;;;26.80;59.70;;;;;;4993125;28;20041;-79
2021/07/12 10:12:34;;;;;;;2.70;2.42;;;26.90;59.70;;;;;;4961191;28;20455;-78
2021/07/12 10:15:00;;;;;;;3.92;2.80;;;27.00;59.60;;;;;;4977206;28;20443;-77
2021/07/12 10:17:26;;;;;;;3.95;2.80;;;27.10;59.60;;;;;;4977641;28;20038;-77
2021/07/12 10:19:52;;;;;;;3.88;2.90;;;27.20;59.50;;;;;;4960922;28;20038;-78
2021/07/12 10:22:22;;;;;;;3.20;2.58;;;27.20;59.30;;;;;;4977598;28;20108;-78
2021/07/12 10:24:49;;;;;;;3.58;2.95;;;27.30;59.20;;;;;;4977350;28;20038;-78
2021/07/12 10:27:27;;;;;;;3.00;2.63;;;27.40;59.10;;;;;;4977058;28;20478;-78
2021/07/12 10:29:55;;;;;;;3.13;2.70;;;27.50;59.10;;;;;;4995086;28;20023;-79
2021/07/12 10:32:26;;;;;;;2.88;2.38;;;27.60;59.00;;;;;;4993475;28;20058;-76
2021/07/12 10:34:54;;;;;;;3.40;2.65;;;27.70;59.00;;;;;;4993722;28;20030;-80
2021/07/12 10:37:27;;;;;;;3.63;2.78;;;27.80;58.80;;;;;;4978440;28;20022;-76
2021/07/12 10:40:13;;;;;;;4.17;3.00;;;27.80;58.60;;;;;;4977347;28;20085;-76
2021/07/12 10:42:51;;;;;;;3.40;2.78;;;27.90;58.60;;;;;;4992815;28;20281;-78
2021/07/12 10:45:18;;;;;;;3.25;2.80;;;28.00;58.50;;;;;;4994480;28;20485;-75
2021/07/12 10:47:51;;;;;;;3.50;3.03;;;28.10;58.40;;;;;;4976489;28;20041;-78
2021/07/12 10:50:43;;;;;;;3.45;2.58;;;28.10;58.20;;;;;;4992882;28;20459;-78
2021/07/12 10:53:12;;;;;;;2.90;2.50;;;28.20;58.30;;;;;;4960590;28;20038;-77
2021/07/12 10:55:38;;;;;;;4.05;2.70;;;28.30;58.20;;;;;;4993985;28;20022;-80
2021/07/12 10:58:19;;;;;;;3.45;2.80;;;28.30;58.00;;;;;;4993158;28;20118;-79
2021/07/12 11:00:49;;;;;;;3.80;2.75;;;28.40;58.00;;;;;;4976588;28;20129;-79
2021/07/12 11:03:34;;;;;;;3.88;2.78;;;28.40;57.90;;;;;;4976384;28;20487;-78
2021/07/12 11:06:01;;;;;;;3.33;2.92;;;28.50;57.90;;;;;;4994807;28;20050;-79
2021/07/12 11:08:56;;;;;;;2.83;2.40;;;28.60;57.80;;;;;;4976522;28;20073;-79
2021/07/12 11:11:22;;;;;;;3.30;2.47;;;28.60;57.90;;;;;;4991480;28;20402;-78
2021/07/12 11:13:57;;;;;;;2.78;2.47;;;28.70;57.70;;;;;;4994885;28;20030;-76
2021/07/12 11:16:25;;;;;;;3.08;2.70;;;28.80;57.70;;;;;;4998040;28;20030;-79
2021/07/12 11:18:53;;;;;;;3.72;2.78;;;28.80;57.60;;;;;;4980292;28;20481;-78
2021/07/12 11:21:31;;;;;;;3.42;2.92;;;28.90;57.60;;;;;;4979596;28;20101;-78
2021/07/12 11:24:19;;;;;;;3.17;2.47;;;29.00;57.50;;;;;;4997282;28;20105;-78
2021/07/12 11:26:48;;;;;;;3.22;2.60;;;29.10;57.50;;;;;;4980277;28;20044;-76
2021/07/12 11:29:16;;;;;;;3.33;2.65;;;29.10;57.30;;;;;;4979862;28;20135;-77
2021/07/12 11:31:42;;;;;;;3.45;2.70;;;29.10;57.20;;;;;;4997139;28;20041;-77
2021/07/12 11:34:19;;;;;;;3.70;2.67;;;29.20;57.10;;;;;;4995710;28;20031;-77
2021/07/12 11:36:51;;;;;;;3.03;2.53;;;29.20;57.10;;;;;;4996051;28;20487;-76
2021/07/12 11:39:19;;;;;;;3.17;2.70;;;29.20;57.00;;;;;;4997546;28;20022;-76
2021/07/12 11:41:45;;;;;;;2.83;2.53;;;29.30;57.00;;;;;;4963580;28;20459;-76
2021/07/12 11:44:13;;;;;;;3.55;2.72;;;29.30;56.90;;;;;;4995768;28;20034;-76
2021/07/12 11:46:39;;;;;;;3.53;2.83;;;29.30;56.90;;;;;;4996250;28;20035;-76
2021/07/12 11:49:17;;;;;;;3.50;2.80;;;29.40;56.90;;;;;;4997379;28;20069;-76
2021/07/12 11:51:43;;;;;;;3.80;2.67;;;29.40;56.80;;;;;;4979440;28;20035;-78
2021/07/12 11:54:28;;;;;;;3.80;3.03;;;29.40;56.70;;;;;;4979181;28;20062;-76
2021/07/12 11:56:58;;;;;;;3.75;2.80;;;29.40;56.80;;;;;;4979766;28;20038;-76
2021/07/12 11:59:35;;;;;;;3.38;2.65;;;29.40;56.60;;;;;;4963409;28;20485;-77
2021/07/12 12:02:08;;;;;;;3.63;2.97;;;29.40;57.30;;;;;;4979193;28;20041;-76
2021/07/12 12:04:47;;;;;;;3.53;2.90;;;29.50;56.60;;;;;;4996954;28;20050;-76
2021/07/12 12:07:29;;;;;;;3.15;2.78;;;29.50;56.60;;;;;;4979356;28;20022;-76
2021/07/12 12:09:56;;;;;;;4.07;2.83;;;29.50;56.50;;;;;;4979202;28;20058;-76
2021/07/12 12:12:24;;;;;;;3.15;2.85;;;29.50;56.40;;;;;;4962858;28;20455;-77
2021/07/12 12:14:49;;;;;;;3.63;3.03;;;29.60;56.40;;;;;;4979211;28;20038;-77
2021/07/12 12:17:15;;;;;;;4.10;3.15;;;29.60;56.30;;;;;;4995594;28;20030;-76
2021/07/12 12:19:41;;;;;;;3.45;2.97;;;29.60;56.30;;;;;;4997009;28;20064;-77
2021/07/12 12:22:07;;;;;;;3.65;3.05;;;29.60;56.20;;;;;;4996309;28;20041;-77
2021/07/12 12:24:33;;;;;;;3.78;3.10;;;29.60;56.20;;;;;;4995884;28;20455;-77
2021/07/12 12:26:58;;;;;;;3.85;3.40;;;29.70;56.20;;;;;;4978467;28;20027;-77
2021/07/12 12:29:24;;;;;;;4.53;3.20;;;29.70;56.20;;;;;;4978545;28;20065;-76
2021/07/12 12:31:50;;;;;;;3.38;2.80;;;29.60;56.20;;;;;;4979242;28;20073;-76
2021/07/12 12:34:18;;;;;;;3.55;3.00;;;29.70;56.30;;;;;;4995790;28;20068;-75
2021/07/12 12:36:44;;;;;;;4.20;3.20;;;29.70;56.30;;;;;;4995221;28;20042;-76
2021/07/12 12:39:13;;;;;;;3.83;3.08;;;29.70;56.20;;;;;;4994837;28;20033;-76
2021/07/12 12:41:54;;;;;;;3.58;3.03;;;29.70;56.30;;;;;;4978451;28;20088;-76
2021/07/12 12:44:22;;;;;;;4.20;3.20;;;29.70;56.30;;;;;;4996483;28;20096;-76
2021/07/12 12:46:56;;;;;;;3.80;3.25;;;29.70;56.20;;;;;;4963111;28;20022;-78
2021/07/12 12:49:31;;;;;;;;;;;29.70;56.20;;;;;;4978767;28;20046;-75
2021/07/12 12:51:58;;;;;;;3.70;2.97;;;29.70;56.40;;;;;;4995453;28;19914;-77
2021/07/12 12:54:32;;;;;;;3.20;2.85;;;29.70;56.10;;;;;;4995586;28;20137;-76
2021/07/12 12:57:00;;;;;;;3.73;3.00;;;29.70;56.20;;;;;;4994505;28;20035;-76
2021/07/12 12:59:34;;;;;;;3.53;3.08;;;29.70;56.10;;;;;;4995679;28;20297;-76
2021/07/12 13:02:20;;;;;;;4.85;3.58;;;29.70;56.10;;;;;;4978424;28;20030;-77